createdAt,value
2023-03-18T00:00:11.455Z,97088.47
2023-03-18T00:02:40.522Z,97096.63
2023-03-18T00:05:09.022Z,97101.63
2023-03-18T00:07:37.388Z,97102.00
2023-03-18T00:10:06.991Z,97105.47
2023-03-18T00:12:34.506Z,97107.78
2023-03-18T00:15:02.510Z,97113.19
2023-03-18T00:17:28.989Z,97118.63
2023-03-18T00:19:55.650Z,97117.44
2023-03-18T00:22:22.861Z,97127.47
2023-03-18T00:24:49.364Z,97125.53
2023-03-18T00:27:16.508Z,97126.31
2023-03-18T00:29:43.230Z,97127.09
2023-03-18T00:32:10.955Z,97128.63
2023-03-18T00:34:37.436Z,97128.97
2023-03-18T00:37:03.903Z,97130.91
2023-03-18T00:39:33.067Z,97144.06
2023-03-18T00:42:02.258Z,97146.28
2023-03-18T00:44:28.869Z,97143.56
2023-03-18T00:46:55.610Z,97149.31
2023-03-18T00:49:22.173Z,97161.22
2023-03-18T00:51:48.784Z,97161.34
2023-03-18T00:54:18.323Z,97160.09
2023-03-18T00:56:44.855Z,97168.25
2023-03-18T00:59:11.939Z,97161.22
2023-03-18T01:01:39.470Z,97153.09
2023-03-18T01:04:07.561Z,97150.84
2023-03-18T01:06:36.032Z,97143.84
2023-03-18T01:09:05.144Z,97155.06
2023-03-18T01:11:33.381Z,97149.22
2023-03-18T01:14:00.670Z,97158.44
2023-03-18T01:16:28.196Z,97146.47
2023-03-18T01:18:54.746Z,97159.25
2023-03-18T01:21:22.423Z,97148.47
2023-03-18T01:23:49.008Z,97153.03
2023-03-18T01:26:16.828Z,97155.31
2023-03-18T01:28:43.840Z,97146.84
2023-03-18T01:31:10.758Z,97156.88
2023-03-18T01:33:37.290Z,97150.66
2023-03-18T01:36:05.381Z,97155.34
2023-03-18T01:38:33.657Z,97152.66
2023-03-18T01:41:01.064Z,97151.47
2023-03-18T01:43:30.606Z,97163.00
2023-03-18T01:45:59.263Z,97153.66
2023-03-18T01:48:29.495Z,97159.00
2023-03-18T01:51:10.125Z,97165.25
2023-03-18T01:53:41.955Z,97169.09
2023-03-18T01:56:09.181Z,97167.38
2023-03-18T01:58:44.916Z,97169.34
2023-03-18T02:01:22.350Z,97162.78
2023-03-18T02:03:54.184Z,97170.50
2023-03-18T02:06:21.221Z,97182.75
2023-03-18T02:08:47.942Z,97172.78
2023-03-18T02:11:14.720Z,97175.13
2023-03-18T02:13:43.897Z,97177.34
2023-03-18T02:16:18.621Z,97170.31
2023-03-18T02:18:50.400Z,97174.56
2023-03-18T02:21:37.578Z,97180.25
2023-03-18T02:24:15.264Z,97176.13
2023-03-18T02:27:12.691Z,97180.41
2023-03-18T02:29:42.327Z,97188.03
2023-03-18T02:32:10.142Z,97185.38
2023-03-18T02:34:38.520Z,97188.06
2023-03-18T02:37:07.930Z,97186.50
2023-03-18T02:39:36.097Z,97195.41
2023-03-18T02:42:02.735Z,97187.97
2023-03-18T02:44:29.192Z,97184.50
2023-03-18T02:46:59.436Z,97188.72
2023-03-18T02:49:27.699Z,97183.53
2023-03-18T02:51:54.952Z,97183.88
2023-03-18T02:54:25.910Z,97188.63
2023-03-18T02:56:53.509Z,97191.81
2023-03-18T02:59:22.067Z,97194.78
2023-03-18T03:01:51.677Z,97194.34
2023-03-18T03:04:20.626Z,97198.56
2023-03-18T03:06:47.466Z,97201.63
2023-03-18T03:09:15.599Z,97197.84
2023-03-18T03:11:44.048Z,97204.03
2023-03-18T03:14:11.173Z,97202.75
2023-03-18T03:16:37.894Z,97200.06
2023-03-18T03:19:06.060Z,97200.34
2023-03-18T03:21:34.173Z,97201.56
2023-03-18T03:24:00.652Z,97201.56
2023-03-18T03:26:27.320Z,97206.53
2023-03-18T03:28:53.799Z,97204.69
2023-03-18T03:31:20.273Z,97212.03
2023-03-18T03:33:46.764Z,97211.63
2023-03-18T03:36:16.464Z,97216.28
2023-03-18T03:38:43.579Z,97217.84
2023-03-18T03:41:12.587Z,97224.78
2023-03-18T03:43:40.406Z,97229.28
2023-03-18T03:46:11.164Z,97230.94
2023-03-18T03:48:39.684Z,97239.78
2023-03-18T03:51:07.116Z,97232.53
2023-03-18T03:53:36.104Z,97242.97
2023-03-18T03:56:03.816Z,97241.06
2023-03-18T03:58:30.311Z,97229.09
2023-03-18T04:00:57.037Z,97234.78
2023-03-18T04:03:23.832Z,97237.16
2023-03-18T04:05:50.321Z,97235.84
2023-03-18T04:08:16.904Z,97243.94
2023-03-18T04:10:43.741Z,97240.84
2023-03-18T04:13:10.566Z,97238.88
2023-03-18T04:15:37.465Z,97233.81
2023-03-18T04:18:07.306Z,97235.47
2023-03-18T04:20:35.694Z,97224.94
2023-03-18T04:23:02.719Z,97229.16
2023-03-18T04:25:29.908Z,97230.78
2023-03-18T04:27:57.052Z,97238.56
2023-03-18T04:30:25.640Z,97240.84
2023-03-18T04:32:53.148Z,97240.84
2023-03-18T04:35:19.810Z,97241.72
2023-03-18T04:37:46.242Z,97240.84
2023-03-18T04:40:13.140Z,97241.72
2023-03-18T04:42:40.115Z,97238.94
2023-03-18T04:45:07.905Z,97246.69
2023-03-18T04:47:36.057Z,97239.09
2023-03-18T04:50:04.662Z,97243.44
2023-03-18T04:52:31.493Z,97236.84
2023-03-18T04:54:58.281Z,97246.88
2023-03-18T04:57:25.212Z,97242.91
2023-03-18T04:59:52.185Z,97239.84
2023-03-18T05:02:19.072Z,97244.41
2023-03-18T05:04:45.645Z,97239.03
2023-03-18T05:07:15.988Z,97237.03
2023-03-18T05:09:43.646Z,97238.59
2023-03-18T05:12:19.121Z,97245.63
2023-03-18T05:14:46.096Z,97248.28
2023-03-18T05:17:16.075Z,97241.38
2023-03-18T05:19:44.946Z,97251.78
2023-03-18T05:22:17.038Z,97242.88
2023-03-18T05:24:46.046Z,97249.03
2023-03-18T05:27:18.632Z,97252.81
2023-03-18T05:29:45.855Z,97252.75
2023-03-18T05:32:14.771Z,97262.56
2023-03-18T05:34:42.135Z,97262.03
2023-03-18T05:37:11.222Z,97265.69
2023-03-18T05:39:38.189Z,97266.94
2023-03-18T05:42:04.999Z,97252.09
2023-03-18T05:44:31.935Z,97258.44
2023-03-18T05:46:58.695Z,97265.44
2023-03-18T05:49:25.337Z,97261.47
2023-03-18T05:51:54.708Z,97270.84
2023-03-18T05:54:22.104Z,97280.94
2023-03-18T05:56:49.992Z,97267.09
2023-03-18T05:59:17.649Z,97282.56
2023-03-18T06:01:44.685Z,97279.66
2023-03-18T06:04:11.512Z,97273.81
2023-03-18T06:06:40.658Z,97277.72
2023-03-18T06:09:08.835Z,97275.81
2023-03-18T06:11:35.843Z,97278.22
2023-03-18T06:14:04.805Z,97277.53
2023-03-18T06:16:34.035Z,97286.09
2023-03-18T06:19:01.918Z,97287.75
2023-03-18T06:21:28.641Z,97294.44
2023-03-18T06:23:55.190Z,97291.84
2023-03-18T06:26:23.066Z,97291.16
2023-03-18T06:28:49.838Z,97289.72
2023-03-18T06:31:17.291Z,97294.44
2023-03-18T06:33:43.887Z,97309.94
2023-03-18T06:36:11.127Z,97301.91
2023-03-18T06:38:38.210Z,97305.41
2023-03-18T06:41:04.920Z,97298.63
2023-03-18T06:43:31.867Z,97295.56
2023-03-18T06:45:59.991Z,97282.53
2023-03-18T06:48:26.662Z,97296.47
2023-03-18T06:50:54.527Z,97299.59
2023-03-18T06:53:21.170Z,97298.00
2023-03-18T06:55:48.772Z,97295.03
2023-03-18T06:58:15.847Z,97295.88
2023-03-18T07:00:45.433Z,97289.53
2023-03-18T07:03:12.098Z,97293.84
2023-03-18T07:05:38.747Z,97299.75
2023-03-18T07:08:05.436Z,97296.75
2023-03-18T07:10:32.326Z,97302.91
2023-03-18T07:12:59.900Z,97309.13
2023-03-18T07:15:26.749Z,97302.28
2023-03-18T07:17:53.499Z,97311.63
2023-03-18T07:20:20.846Z,97307.84
2023-03-18T07:22:49.874Z,97307.81
2023-03-18T07:25:16.724Z,97319.47
2023-03-18T07:27:43.285Z,97313.31
2023-03-18T07:30:10.378Z,97319.53
2023-03-18T07:32:38.766Z,97303.25
2023-03-18T07:35:06.410Z,97297.81
2023-03-18T07:37:33.603Z,97312.97
2023-03-18T07:40:00.200Z,97322.28
2023-03-18T07:42:26.918Z,97318.41
2023-03-18T07:44:53.764Z,97314.91
2023-03-18T07:47:21.178Z,97318.00
2023-03-18T07:49:47.742Z,97320.34
2023-03-18T07:52:14.561Z,97317.94
2023-03-18T07:54:42.992Z,97319.50
2023-03-18T07:57:10.353Z,97319.50
2023-03-18T07:59:38.050Z,97318.72
2023-03-18T08:02:08.233Z,97324.06
2023-03-18T08:04:35.637Z,97325.63
2023-03-18T08:07:03.189Z,97323.66
2023-03-18T08:09:29.664Z,97326.78
2023-03-18T08:11:56.247Z,97329.44
2023-03-18T08:14:22.968Z,97327.84
2023-03-18T08:16:49.708Z,97330.56
2023-03-18T08:19:16.559Z,97331.50
2023-03-18T08:21:43.636Z,97332.72
2023-03-18T08:24:11.161Z,97340.75
2023-03-18T08:26:37.913Z,97341.28
2023-03-18T08:29:08.615Z,97340.91
2023-03-18T08:31:35.395Z,97329.31
2023-03-18T08:34:02.046Z,97331.97
2023-03-18T08:36:28.779Z,97329.97
2023-03-18T08:38:55.369Z,97332.31
2023-03-18T08:41:22.255Z,97339.09
2023-03-18T08:43:48.869Z,97338.09
2023-03-18T08:46:15.471Z,97330.75
2023-03-18T08:48:42.257Z,97342.16
2023-03-18T08:51:08.696Z,97338.31
2023-03-18T08:53:35.734Z,97334.94
2023-03-18T08:56:03.203Z,97335.00
2023-03-18T08:58:30.223Z,97330.06
2023-03-18T09:00:56.718Z,97334.75
2023-03-18T09:03:24.796Z,97327.66
2023-03-18T09:05:55.690Z,97325.91
2023-03-18T09:08:23.009Z,97324.81
2023-03-18T09:10:53.805Z,97321.94
2023-03-18T09:13:21.664Z,97316.00
2023-03-18T09:15:48.690Z,97319.13
2023-03-18T09:18:16.860Z,97314.56
2023-03-18T09:20:43.381Z,97318.13
2023-03-18T09:23:11.404Z,97324.75
2023-03-18T09:25:38.520Z,97323.34
2023-03-18T09:28:05.378Z,97328.56
2023-03-18T09:30:32.566Z,97325.22
2023-03-18T09:32:59.703Z,97325.13
2023-03-18T09:35:26.460Z,97321.94
2023-03-18T09:37:54.038Z,97318.63
2023-03-18T09:40:29.616Z,97312.81
2023-03-18T09:43:32.429Z,97322.53
2023-03-18T09:46:07.435Z,97319.56
2023-03-18T09:48:34.654Z,97318.84
2023-03-18T09:51:04.318Z,97312.19
2023-03-18T09:53:52.725Z,97310.31
2023-03-18T09:56:27.152Z,97314.56
2023-03-18T09:59:18.461Z,97320.06
2023-03-18T10:01:49.242Z,97317.09
2023-03-18T10:04:20.258Z,97323.44
2023-03-18T10:06:50.824Z,97313.56
2023-03-18T10:09:24.531Z,97303.84
2023-03-18T10:11:53.939Z,97302.59
2023-03-18T10:14:36.395Z,97303.84
2023-03-18T10:17:27.961Z,97306.38
2023-03-18T10:19:58.502Z,97301.19
2023-03-18T10:22:43.553Z,97302.75
2023-03-18T10:25:36.520Z,97304.19
2023-03-18T10:28:12.224Z,97300.09
2023-03-18T10:30:54.900Z,97288.84
2023-03-18T10:33:29.195Z,97300.09
2023-03-18T10:36:39.988Z,97304.50
2023-03-18T10:39:15.398Z,97296.75
2023-03-18T10:41:43.995Z,97289.63
2023-03-18T10:44:20.007Z,97287.16
2023-03-18T10:46:48.153Z,97290.28
2023-03-18T10:49:25.153Z,97286.00
2023-03-18T10:52:00.046Z,97282.75
2023-03-18T10:54:39.402Z,97278.13
2023-03-18T10:57:06.827Z,97275.28
2023-03-18T10:59:34.626Z,97268.47
2023-03-18T11:02:12.855Z,97268.81
2023-03-18T11:04:46.268Z,97265.28
2023-03-18T11:07:21.671Z,97259.25
2023-03-18T11:09:48.160Z,97255.91
2023-03-18T11:12:24.314Z,97253.78
2023-03-18T11:14:51.638Z,97246.44
2023-03-18T11:17:29.285Z,97248.63
2023-03-18T11:20:08.186Z,97244.13
2023-03-18T11:22:37.160Z,97234.28
2023-03-18T11:25:16.601Z,97239.47
2023-03-18T11:27:46.516Z,97237.13
2023-03-18T11:30:35.260Z,97234.50
2023-03-18T11:33:13.727Z,97231.94
2023-03-18T11:35:46.362Z,97231.50
2023-03-18T11:38:19.522Z,97227.84
2023-03-18T11:40:46.894Z,97235.19
2023-03-18T11:43:20.025Z,97224.34
2023-03-18T11:45:52.900Z,97222.97
2023-03-18T11:48:27.298Z,97215.16
2023-03-18T11:51:27.481Z,97214.75
2023-03-18T11:53:56.698Z,97211.75
2023-03-18T11:56:28.419Z,97207.50
2023-03-18T11:59:16.788Z,97200.69
2023-03-18T12:02:08.006Z,97201.81
2023-03-18T12:04:39.992Z,97194.03
2023-03-18T12:07:39.150Z,97199.28
2023-03-18T12:10:12.945Z,97193.16
2023-03-18T12:12:59.823Z,97195.69
2023-03-18T12:15:47.280Z,97191.44
2023-03-18T12:18:55.669Z,97197.41
2023-03-18T12:21:37.110Z,97190.50
2023-03-18T12:24:28.196Z,97188.63
2023-03-18T12:27:10.626Z,97193.31
2023-03-18T12:29:55.845Z,97181.63
2023-03-18T12:32:41.117Z,97191.25
2023-03-18T12:35:50.914Z,97187.97
2023-03-18T12:38:55.089Z,97176.84
2023-03-18T12:41:38.595Z,97183.72
2023-03-18T12:44:39.102Z,97172.44
2023-03-18T12:47:16.675Z,97174.03
2023-03-18T12:49:59.382Z,97170.03
2023-03-18T12:52:39.329Z,97181.00
2023-03-18T12:55:29.424Z,97171.25
2023-03-18T12:58:03.587Z,97170.31
2023-03-18T13:00:40.099Z,97170.75
2023-03-18T13:03:32.286Z,97167.56
2023-03-18T13:06:17.854Z,97168.47
2023-03-18T13:09:36.722Z,97163.44
2023-03-18T13:12:20.425Z,97160.88
2023-03-18T13:15:02.320Z,97163.91
2023-03-18T13:17:40.025Z,97150.53
2023-03-18T13:20:17.425Z,97147.00
2023-03-18T13:22:44.077Z,97148.53
2023-03-18T13:25:29.089Z,97147.63
2023-03-18T13:28:18.412Z,97141.72
2023-03-18T13:31:01.011Z,97145.19
2023-03-18T13:33:44.962Z,97148.78
2023-03-18T13:36:24.034Z,97143.53
2023-03-18T13:39:24.036Z,97136.13
2023-03-18T13:42:23.026Z,97133.06
2023-03-18T13:45:00.090Z,97130.22
2023-03-18T13:47:32.841Z,97125.56
2023-03-18T13:50:07.483Z,97129.19
2023-03-18T13:52:40.358Z,97127.09
2023-03-18T13:55:22.751Z,97120.38
2023-03-18T13:58:09.439Z,97118.78
2023-03-18T14:00:40.574Z,97116.97
2023-03-18T14:03:23.135Z,97111.91
2023-03-18T14:06:10.314Z,97113.84
2023-03-18T14:08:39.796Z,97116.81
2023-03-18T14:11:47.461Z,97111.34
2023-03-18T14:15:03.061Z,97108.25
2023-03-18T14:17:38.747Z,97110.16
2023-03-18T14:20:13.061Z,97113.31
2023-03-18T14:22:40.538Z,97098.91
2023-03-18T14:25:20.683Z,97095.97
2023-03-18T14:28:10.621Z,97095.63
2023-03-18T14:30:37.408Z,97097.13
2023-03-18T14:33:13.121Z,97100.41
2023-03-18T14:35:54.638Z,97103.00
2023-03-18T14:38:49.941Z,97101.19
2023-03-18T14:41:22.567Z,97097.66
2023-03-18T14:44:07.810Z,97092.78
2023-03-18T14:46:41.385Z,97088.38
2023-03-18T14:49:35.606Z,97078.59
2023-03-18T14:52:06.067Z,97088.53
2023-03-18T14:54:41.308Z,97079.84
2023-03-18T14:57:07.909Z,97069.94
2023-03-18T14:59:34.432Z,97075.00
2023-03-18T15:02:03.573Z,97075.00
2023-03-18T15:04:30.431Z,97077.69
2023-03-18T15:07:01.838Z,97073.47
2023-03-18T15:09:32.557Z,97079.41
2023-03-18T15:11:59.215Z,97081.53
2023-03-18T15:14:30.291Z,97070.81
2023-03-18T15:16:59.939Z,97074.63
2023-03-18T15:19:28.778Z,97073.88
2023-03-18T15:21:58.180Z,97083.59
2023-03-18T15:24:27.198Z,97065.16
2023-03-18T15:27:05.953Z,97067.91
2023-03-18T15:29:49.101Z,97063.69
2023-03-18T15:32:17.925Z,97063.22
2023-03-18T15:34:51.578Z,97061.47
2023-03-18T15:37:32.166Z,97066.41
2023-03-18T15:40:26.098Z,97077.28
2023-03-18T15:42:58.075Z,97059.63
2023-03-18T15:45:28.657Z,97074.09
2023-03-18T15:47:58.270Z,97061.97
2023-03-18T15:50:29.289Z,97069.09
2023-03-18T15:53:26.800Z,97066.34
2023-03-18T15:55:58.555Z,97071.00
2023-03-18T15:58:35.700Z,97068.28
2023-03-18T16:01:02.563Z,97068.59
2023-03-18T16:03:33.741Z,97075.94
2023-03-18T16:06:01.475Z,97067.81
2023-03-18T16:08:28.291Z,97078.41
2023-03-18T16:11:02.015Z,97075.47
2023-03-18T16:13:32.154Z,97074.13
2023-03-18T16:15:58.712Z,97084.72
2023-03-18T16:18:25.545Z,97084.72
2023-03-18T16:20:54.067Z,97086.41
2023-03-18T16:23:20.935Z,97080.88
2023-03-18T16:25:50.917Z,97079.06
2023-03-18T16:28:26.272Z,97074.94
2023-03-18T16:30:55.321Z,97085.16
2023-03-18T16:33:23.328Z,97083.19
2023-03-18T16:35:58.458Z,97089.22
2023-03-18T16:38:26.066Z,97104.50
2023-03-18T16:40:54.807Z,97103.44
2023-03-18T16:43:24.350Z,97095.06
2023-03-18T16:45:51.763Z,97100.03
2023-03-18T16:48:23.025Z,97102.50
2023-03-18T16:50:51.479Z,97095.59
2023-03-18T16:53:23.427Z,97103.25
2023-03-18T16:56:16.249Z,97102.94
2023-03-18T16:58:42.981Z,97101.41
2023-03-18T17:01:15.067Z,97107.66
2023-03-18T17:03:41.585Z,97104.00
2023-03-18T17:06:09.813Z,97113.19
2023-03-18T17:08:37.852Z,97118.38
2023-03-18T17:11:04.896Z,97112.22
2023-03-18T17:13:34.320Z,97118.44
2023-03-18T17:16:04.935Z,97111.56
2023-03-18T17:18:31.981Z,97107.53
2023-03-18T17:20:58.726Z,97113.91
2023-03-18T17:23:29.080Z,97116.28
2023-03-18T17:25:59.693Z,97118.69
2023-03-18T17:28:39.245Z,97116.81
2023-03-18T17:31:06.322Z,97124.09
2023-03-18T17:33:35.715Z,97121.75
2023-03-18T17:36:02.973Z,97120.91
2023-03-18T17:38:35.080Z,97121.28
2023-03-18T17:41:05.711Z,97116.19
2023-03-18T17:43:34.611Z,97119.44
2023-03-18T17:46:03.033Z,97107.84
2023-03-18T17:48:31.933Z,97109.69
2023-03-18T17:51:10.735Z,97109.88
2023-03-18T17:53:40.368Z,97112.09
2023-03-18T17:56:09.819Z,97115.19
2023-03-18T17:58:36.790Z,97121.34
2023-03-18T18:01:13.918Z,97125.44
2023-03-18T18:03:40.732Z,97115.56
2023-03-18T18:06:08.220Z,97113.34
2023-03-18T18:08:34.746Z,97117.50
2023-03-18T18:11:25.423Z,97115.97
2023-03-18T18:13:56.290Z,97119.28
2023-03-18T18:16:24.191Z,97124.78
2023-03-18T18:18:51.066Z,97119.28
2023-03-18T18:21:20.404Z,97130.28
2023-03-18T18:23:47.339Z,97123.69
2023-03-18T18:26:16.959Z,97134.31
2023-03-18T18:28:46.354Z,97124.09
2023-03-18T18:31:14.640Z,97128.94
2023-03-18T18:33:42.554Z,97130.38
2023-03-18T18:36:10.077Z,97127.84
2023-03-18T18:38:36.604Z,97131.31
2023-03-18T18:41:03.152Z,97135.84
2023-03-18T18:43:29.957Z,97133.28
2023-03-18T18:45:57.826Z,97130.38
2023-03-18T18:48:35.709Z,97122.59
2023-03-18T18:51:04.332Z,97127.59
2023-03-18T18:53:35.746Z,97122.22
2023-03-18T18:56:13.328Z,97121.66
2023-03-18T18:58:40.516Z,97125.13
2023-03-18T19:01:07.122Z,97127.59
2023-03-18T19:03:34.509Z,97126.75
2023-03-18T19:06:02.069Z,97127.59
2023-03-18T19:08:36.838Z,97132.09
2023-03-18T19:11:07.028Z,97126.34
2023-03-18T19:13:37.827Z,97127.41
2023-03-18T19:16:14.619Z,97126.19
2023-03-18T19:18:43.095Z,97132.66
2023-03-18T19:21:09.579Z,97128.38
2023-03-18T19:23:36.457Z,97130.09
2023-03-18T19:26:04.306Z,97133.69
2023-03-18T19:28:47.830Z,97131.72
2023-03-18T19:31:24.414Z,97141.25
2023-03-18T19:33:52.682Z,97129.84
2023-03-18T19:36:24.335Z,97130.78
2023-03-18T19:38:51.502Z,97129.41
2023-03-18T19:41:18.203Z,97133.78
2023-03-18T19:43:44.696Z,97135.75
2023-03-18T19:46:18.247Z,97138.25
2023-03-18T19:48:45.617Z,97141.47
2023-03-18T19:51:15.423Z,97144.81
2023-03-18T19:53:44.493Z,97151.03
2023-03-18T19:56:24.505Z,97144.97
2023-03-18T19:58:57.085Z,97146.66
2023-03-18T20:01:24.440Z,97147.53
2023-03-18T20:03:55.649Z,97149.88
2023-03-18T20:06:22.097Z,97150.03
2023-03-18T20:08:48.661Z,97153.63
2023-03-18T20:11:16.709Z,97152.59
2023-03-18T20:13:43.515Z,97153.84
2023-03-18T20:16:15.050Z,97152.72
2023-03-18T20:18:42.614Z,97156.66
2023-03-18T20:21:17.438Z,97156.03
2023-03-18T20:23:44.073Z,97162.34
2023-03-18T20:26:10.858Z,97159.41
2023-03-18T20:28:41.492Z,97162.22
2023-03-18T20:31:09.455Z,97167.00
2023-03-18T20:33:36.177Z,97169.03
2023-03-18T20:36:03.095Z,97169.88
2023-03-18T20:38:36.651Z,97171.50
2023-03-18T20:41:03.322Z,97170.50
2023-03-18T20:43:31.021Z,97170.84
2023-03-18T20:45:59.474Z,97174.91
2023-03-18T20:48:28.397Z,97188.22
2023-03-18T20:50:55.398Z,97178.47
2023-03-18T20:53:28.918Z,97175.00
2023-03-18T20:55:56.163Z,97172.28
2023-03-18T20:58:25.004Z,97171.59
2023-03-18T21:00:53.577Z,97177.56
2023-03-18T21:03:23.960Z,97182.28
2023-03-18T21:05:51.753Z,97180.81
2023-03-18T21:08:19.089Z,97183.19
2023-03-18T21:10:46.343Z,97184.44
2023-03-18T21:13:33.690Z,97187.28
2023-03-18T21:16:00.814Z,97181.13
2023-03-18T21:18:27.747Z,97176.50
2023-03-18T21:20:55.446Z,97172.63
2023-03-18T21:23:27.574Z,97171.50
2023-03-18T21:25:56.052Z,97175.91
2023-03-18T21:28:26.554Z,97180.16
2023-03-18T21:30:57.980Z,97179.03
2023-03-18T21:33:31.420Z,97174.47
2023-03-18T21:35:58.352Z,97182.31
2023-03-18T21:38:28.820Z,97183.13
2023-03-18T21:40:56.151Z,97183.59
2023-03-18T21:43:37.144Z,97187.16
2023-03-18T21:46:05.963Z,97186.44
2023-03-18T21:48:33.000Z,97184.97
2023-03-18T21:50:59.752Z,97189.72
2023-03-18T21:53:28.621Z,97190.50
2023-03-18T21:55:55.743Z,97183.94
2023-03-18T21:58:24.420Z,97175.81
2023-03-18T22:00:53.559Z,97189.94
2023-03-18T22:03:23.242Z,97184.91
2023-03-18T22:05:52.192Z,97186.94
2023-03-18T22:08:20.095Z,97185.41
2023-03-18T22:10:48.198Z,97184.69
2023-03-18T22:13:19.214Z,97177.78
2023-03-18T22:15:49.532Z,97184.84
2023-03-18T22:18:16.759Z,97185.69
2023-03-18T22:20:45.439Z,97177.91
2023-03-18T22:23:13.202Z,97179.56
2023-03-18T22:25:41.902Z,97178.81
2023-03-18T22:28:08.601Z,97174.25
2023-03-18T22:30:36.282Z,97188.28
2023-03-18T22:33:04.489Z,97196.16
2023-03-18T22:35:31.513Z,97183.34
2023-03-18T22:37:58.467Z,97183.34
2023-03-18T22:40:27.803Z,97189.25
2023-03-18T22:42:57.304Z,97188.50
2023-03-18T22:45:28.597Z,97191.28
2023-03-18T22:48:01.624Z,97184.66
2023-03-18T22:50:32.237Z,97194.50
2023-03-18T22:53:06.043Z,97192.59
2023-03-18T22:55:36.585Z,97196.50
2023-03-18T22:58:03.645Z,97198.03
2023-03-18T23:00:39.265Z,97195.75
2023-03-18T23:03:22.087Z,97199.22
2023-03-18T23:05:51.620Z,97197.38
2023-03-18T23:08:19.432Z,97195.00
2023-03-18T23:10:48.218Z,97201.69
2023-03-18T23:13:41.693Z,97203.34
2023-03-18T23:16:14.247Z,97206.06
2023-03-18T23:18:40.953Z,97197.13
2023-03-18T23:21:10.065Z,97202.94
2023-03-18T23:23:36.527Z,97206.84
2023-03-18T23:26:03.382Z,97209.19
2023-03-18T23:28:33.056Z,97203.75
2023-03-18T23:31:01.587Z,97208.84
2023-03-18T23:33:28.119Z,97212.38
2023-03-18T23:35:54.654Z,97205.38
2023-03-18T23:38:21.340Z,97206.16
2023-03-18T23:40:47.860Z,97202.25
2023-03-18T23:43:14.807Z,97201.50
2023-03-18T23:45:41.498Z,97203.81
2023-03-18T23:48:08.017Z,97203.81
2023-03-18T23:50:34.860Z,97215.50
2023-03-18T23:53:01.861Z,97215.50
2023-03-18T23:55:34.865Z,97216.69
2023-03-18T23:58:02.653Z,97213.97
